Time;durP1;ratioP1;P1;durP2;ratioP2;P2;SDS_P1;SDS_P2;PMS_P1;PMS_P2;Temp;Humidity;BMP_temperature;BMP_pressure;BME280_temperature;BME280_humidity;BME280_pressure;Samples;Min_cycle;Max_cycle;Signal;HPM_P1;HPM_P2
2022/04/07 00:00:10;;;;;;;8.63;8.32;;;5.90;99.90;;;;;;4179061;28;20120;-86
2022/04/07 00:02:11;;;;;;;;;;;5.90;99.90;;;;;;4183411;28;20083;-86
2022/04/07 00:04:14;;;;;;;6.88;6.20;;;5.90;99.90;;;;;;4177718;28;19925;-86
2022/04/07 00:06:16;;;;;;;8.25;7.47;;;5.80;99.90;;;;;;4189464;28;20072;-86
2022/04/07 00:08:19;;;;;;;7.82;7.47;;;5.80;99.90;;;;;;4203996;28;20126;-86
2022/04/07 00:10:21;;;;;;;7.35;7.15;;;5.80;99.90;;;;;;4184244;28;20065;-86
2022/04/07 00:12:24;;;;;;;6.63;6.32;;;5.90;99.90;;;;;;4172639;28;20095;-86
2022/04/07 00:14:28;;;;;;;8.13;7.47;;;6.00;99.90;;;;;;4179010;28;20075;-86
2022/04/07 00:16:31;;;;;;;7.47;7.03;;;5.90;99.90;;;;;;4178858;28;20057;-86
2022/04/07 00:18:33;;;;;;;9.20;8.73;;;5.80;99.90;;;;;;4191182;28;20087;-86
2022/04/07 00:20:36;;;;;;;8.60;8.32;;;5.70;99.90;;;;;;4181114;28;20048;-86
2022/04/07 00:22:39;;;;;;;7.10;6.78;;;5.80;99.90;;;;;;4175938;28;20552;-86
2022/04/07 00:24:46;;;;;;;9.63;9.10;;;5.80;99.90;;;;;;4177327;28;20040;-86
2022/04/07 00:26:48;;;;;;;7.90;7.50;;;5.70;99.90;;;;;;4178193;28;20120;-86
2022/04/07 00:28:52;;;;;;;8.68;7.65;;;5.60;99.90;;;;;;4208977;28;20561;-86
2022/04/07 00:30:58;;;;;;;8.60;8.07;;;5.60;99.90;;;;;;4188858;28;20033;-86
2022/04/07 00:33:01;;;;;;;8.07;7.45;;;5.60;99.90;;;;;;4176071;28;20037;-86
2022/04/07 00:35:04;;;;;;;8.00;7.70;;;5.60;99.90;;;;;;4180562;28;20509;-86
2022/04/07 00:37:06;;;;;;;8.82;8.13;;;5.70;99.90;;;;;;4195249;28;20040;-86
2022/04/07 00:39:08;;;;;;;10.27;9.57;;;5.70;99.90;;;;;;4178566;28;20043;-86
2022/04/07 00:41:12;;;;;;;9.02;8.55;;;5.60;99.90;;;;;;4164160;28;20025;-86
2022/04/07 00:43:36;;;;;;;8.63;7.68;;;5.60;99.90;;;;;;4194621;28;20040;-86
2022/04/07 00:45:38;;;;;;;8.20;7.68;;;5.60;99.90;;;;;;4179587;28;20045;-86
2022/04/07 00:47:42;;;;;;;9.00;8.40;;;5.60;99.90;;;;;;4165222;28;20049;-87
2022/04/07 00:49:44;;;;;;;8.65;8.05;;;5.60;99.90;;;;;;4194972;28;20514;-86
2022/04/07 00:51:49;;;;;;;8.10;7.65;;;5.60;99.90;;;;;;4179400;28;20041;-86
2022/04/07 00:53:51;;;;;;;6.55;6.13;;;5.60;99.90;;;;;;4189324;28;20139;-87
2022/04/07 00:55:59;;;;;;;7.53;7.22;;;5.60;99.90;;;;;;4183203;28;20064;-86
2022/04/07 00:58:03;;;;;;;7.97;7.47;;;5.50;99.90;;;;;;4170798;28;20037;-86
2022/04/07 01:00:07;;;;;;;7.03;6.75;;;5.60;99.90;;;;;;4193223;28;20045;-86
2022/04/07 01:02:10;;;;;;;6.72;6.32;;;5.50;99.90;;;;;;4190307;28;20045;-86
2022/04/07 01:04:13;;;;;;;9.27;8.50;;;5.50;99.90;;;;;;4179451;28;20040;-86
2022/04/07 01:06:19;;;;;;;9.25;8.35;;;5.50;99.90;;;;;;4193535;28;20123;-86
2022/04/07 01:08:21;;;;;;;8.55;8.18;;;5.50;99.90;;;;;;4194941;28;20114;-86
2022/04/07 01:10:25;;;;;;;6.82;6.45;;;5.50;99.90;;;;;;4185713;28;20087;-86
2022/04/07 01:12:27;;;;;;;8.20;6.35;;;5.40;99.90;;;;;;4190083;28;20535;-86
2022/04/07 01:14:30;;;;;;;7.85;7.20;;;5.40;99.90;;;;;;4192063;28;20044;-86
2022/04/07 01:16:32;;;;;;;6.55;6.28;;;5.50;99.90;;;;;;4193352;28;20075;-86
2022/04/07 01:18:34;;;;;;;7.65;7.28;;;5.50;99.90;;;;;;4186802;28;20469;-86
2022/04/07 01:20:38;;;;;;;8.40;7.93;;;5.50;99.90;;;;;;4185544;28;20052;-86
2022/04/07 01:22:44;;;;;;;6.82;6.43;;;5.40;99.90;;;;;;4179014;28;20083;-86
2022/04/07 01:24:49;;;;;;;7.93;7.10;;;5.50;99.90;;;;;;4191714;28;20080;-86
2022/04/07 01:26:51;;;;;;;7.30;7.10;;;5.40;99.90;;;;;;4193185;28;20051;-86
2022/04/07 01:28:53;;;;;;;7.90;7.47;;;5.40;99.90;;;;;;4193222;28;20527;-87
2022/04/07 01:30:56;;;;;;;7.95;7.45;;;5.40;99.90;;;;;;4191522;28;20132;-86
2022/04/07 01:33:00;;;;;;;7.18;6.90;;;5.40;99.90;;;;;;4182018;28;20044;-86
2022/04/07 01:35:03;;;;;;;7.15;6.95;;;5.40;99.90;;;;;;4179561;28;20107;-86
2022/04/07 01:37:07;;;;;;;7.22;7.07;;;5.40;99.90;;;;;;4187078;28;20500;-86
2022/04/07 01:39:09;;;;;;;7.57;6.63;;;5.40;99.90;;;;;;4165355;28;20072;-86
2022/04/07 01:41:12;;;;;;;8.60;7.88;;;5.40;99.90;;;;;;4194556;28;20607;-87
2022/04/07 01:43:15;;;;;;;;;;;5.40;99.90;;;;;;4191515;28;20044;-87
2022/04/07 01:45:20;;;;;;;7.03;6.75;;;5.30;99.90;;;;;;4175573;28;19921;-86
2022/04/07 01:47:22;;;;;;;8.43;6.90;;;5.30;99.90;;;;;;4209158;28;20050;-86
2022/04/07 01:49:25;;;;;;;;;;;5.40;99.90;;;;;;4178628;28;20049;-87
2022/04/07 01:51:28;;;;;;;7.20;6.77;;;5.40;99.90;;;;;;4185257;28;19984;-86
2022/04/07 01:53:31;;;;;;;8.30;7.78;;;5.40;99.90;;;;;;4192962;28;20797;-86
2022/04/07 01:55:35;;;;;;;;;;;5.40;99.90;;;;;;4187430;28;20056;-86
2022/04/07 01:57:38;;;;;;;6.47;6.28;;;5.40;99.90;;;;;;4178768;28;19921;-86
2022/04/07 01:59:40;;;;;;;7.15;6.75;;;5.40;99.90;;;;;;4181601;28;20626;-86
2022/04/07 02:01:43;;;;;;;6.90;6.70;;;5.30;99.90;;;;;;4185483;28;20040;-86
2022/04/07 02:03:47;;;;;;;8.05;7.43;;;5.40;99.90;;;;;;4176996;28;20060;-86
2022/04/07 02:05:50;;;;;;;8.75;8.20;;;5.40;99.90;;;;;;4193056;28;20049;-86
2022/04/07 02:07:53;;;;;;;8.68;7.95;;;5.30;99.90;;;;;;4197326;28;20064;-86
2022/04/07 02:09:56;;;;;;;7.97;7.47;;;5.30;99.90;;;;;;4195694;28;20138;-86
2022/04/07 02:12:02;;;;;;;6.88;6.45;;;5.40;99.90;;;;;;4194833;28;20034;-86
2022/04/07 02:14:04;;;;;;;8.90;8.30;;;5.30;99.90;;;;;;4190491;28;20064;-86
2022/04/07 02:16:07;;;;;;;7.03;6.07;;;5.30;99.90;;;;;;4192674;28;20514;-86
2022/04/07 02:18:10;;;;;;;6.28;6.07;;;5.30;99.90;;;;;;4174302;28;20135;-86
2022/04/07 02:20:12;;;;;;;7.68;7.30;;;5.20;99.90;;;;;;4191348;28;20048;-86
2022/04/07 02:22:14;;;;;;;7.30;7.00;;;5.20;99.90;;;;;;4191704;28;20091;-86
2022/04/07 02:24:16;;;;;;;6.15;5.95;;;5.30;99.90;;;;;;4193174;28;20540;-86
2022/04/07 02:26:18;;;;;;;5.32;4.95;;;5.30;99.90;;;;;;4183274;28;20045;-86
2022/04/07 02:28:21;;;;;;;7.45;7.00;;;5.30;99.90;;;;;;4183159;28;20094;-86
2022/04/07 02:30:23;;;;;;;7.10;6.50;;;5.30;99.90;;;;;;4163411;28;20159;-87
2022/04/07 02:32:28;;;;;;;7.70;7.22;;;5.40;99.90;;;;;;4188589;28;20078;-86
2022/04/07 02:34:30;;;;;;;7.28;7.03;;;5.40;99.90;;;;;;4187035;28;20107;-87
2022/04/07 02:36:33;;;;;;;7.20;6.90;;;5.40;99.90;;;;;;4177353;28;20071;-86
2022/04/07 02:38:36;;;;;;;7.43;7.13;;;5.40;99.90;;;;;;4195651;28;20040;-86
2022/04/07 02:40:38;;;;;;;;;;;5.30;99.90;;;;;;4182184;28;20037;-86
2022/04/07 02:42:39;;;;;;;7.38;6.82;;;5.30;99.90;;;;;;4180479;28;19975;-86
2022/04/07 02:44:41;;;;;;;7.50;7.05;;;5.30;99.90;;;;;;4208815;28;20578;-86
2022/04/07 02:46:43;;;;;;;7.03;6.82;;;5.30;99.90;;;;;;4197473;28;20043;-86
2022/04/07 02:48:46;;;;;;;6.00;5.90;;;5.20;99.90;;;;;;4180526;28;20524;-86
2022/04/07 02:50:49;;;;;;;7.85;7.60;;;5.20;99.90;;;;;;4177100;28;20114;-86
2022/04/07 02:52:52;;;;;;;7.80;7.40;;;5.20;99.90;;;;;;4173190;28;20070;-87
2022/04/07 02:54:54;;;;;;;7.35;6.75;;;5.10;99.90;;;;;;4199544;28;20060;-86
2022/04/07 02:56:57;;;;;;;7.65;7.38;;;5.10;99.90;;;;;;4182078;28;20140;-86
2022/04/07 02:59:02;;;;;;;7.45;7.15;;;5.10;99.90;;;;;;4186669;28;20055;-86
2022/04/07 03:01:04;;;;;;;7.50;7.20;;;5.10;99.90;;;;;;4162668;28;20096;-86
2022/04/07 03:03:08;;;;;;;8.23;7.82;;;5.10;99.90;;;;;;4193595;28;20131;-86
2022/04/07 03:05:11;;;;;;;8.13;7.53;;;5.10;99.90;;;;;;4178795;28;20440;-86
2022/04/07 03:07:14;;;;;;;9.70;9.13;;;5.10;99.90;;;;;;4190863;28;20072;-86
2022/04/07 03:09:19;;;;;;;9.48;8.13;;;5.10;99.90;;;;;;4195309;28;20044;-86
2022/04/07 03:11:21;;;;;;;8.43;7.93;;;5.10;99.90;;;;;;4178657;28;20053;-87
2022/04/07 03:13:23;;;;;;;7.90;7.50;;;5.10;99.90;;;;;;4201394;28;20067;-86
2022/04/07 03:15:26;;;;;;;7.70;7.40;;;5.10;99.90;;;;;;4184514;28;20040;-86
2022/04/07 03:17:29;;;;;;;8.88;8.07;;;5.10;99.90;;;;;;4183036;28;20500;-87
2022/04/07 03:19:32;;;;;;;6.85;6.55;;;5.10;99.90;;;;;;4178617;28;20063;-86
2022/04/07 03:21:34;;;;;;;8.82;8.38;;;5.00;99.90;;;;;;4193713;28;20139;-86
2022/04/07 03:23:36;;;;;;;7.97;7.75;;;5.00;99.90;;;;;;4192252;28;20052;-86
2022/04/07 03:25:38;;;;;;;9.45;8.95;;;5.00;99.90;;;;;;4190568;28;20068;-87
2022/04/07 03:27:41;;;;;;;7.85;7.45;;;5.00;99.90;;;;;;4194873;28;20067;-86
2022/04/07 03:29:44;;;;;;;8.82;8.43;;;5.00;99.90;;;;;;4194775;28;20033;-86
2022/04/07 03:31:49;;;;;;;8.25;7.82;;;5.10;99.90;;;;;;4180985;28;20592;-86
2022/04/07 03:33:51;;;;;;;9.00;8.60;;;5.10;99.90;;;;;;4169020;28;20083;-86
2022/04/07 03:35:55;;;;;;;9.23;8.50;;;5.10;99.90;;;;;;4177599;28;20047;-86
2022/04/07 03:37:58;;;;;;;8.98;8.32;;;5.10;99.90;;;;;;4195097;28;20501;-86
2022/04/07 03:40:01;;;;;;;8.32;8.13;;;5.10;99.90;;;;;;4194790;28;20063;-86
2022/04/07 03:42:04;;;;;;;9.73;8.93;;;5.10;99.90;;;;;;4178258;28;20037;-86
2022/04/07 03:44:09;;;;;;;9.35;8.85;;;5.10;99.90;;;;;;4201698;28;20111;-86
2022/04/07 03:46:16;;;;;;;7.97;7.57;;;5.10;99.90;;;;;;4197685;28;20041;-86
2022/04/07 03:48:20;;;;;;;10.85;10.00;;;5.00;99.90;;;;;;4187787;28;20040;-86
2022/04/07 03:50:23;;;;;;;9.02;8.70;;;5.00;99.90;;;;;;4183136;28;20048;-87
2022/04/07 03:52:26;;;;;;;9.40;9.00;;;5.10;99.90;;;;;;4190829;28;20068;-86
2022/04/07 03:54:30;;;;;;;7.97;7.25;;;5.00;99.90;;;;;;4195903;28;20036;-86
2022/04/07 03:56:34;;;;;;;6.95;6.72;;;5.10;99.90;;;;;;4186391;28;20113;-86
2022/04/07 03:58:37;;;;;;;8.93;8.43;;;5.00;99.90;;;;;;4180188;28;20116;-86
2022/04/07 04:00:39;;;;;;;6.88;6.68;;;5.00;99.90;;;;;;4179113;28;20076;-86
2022/04/07 04:02:43;;;;;;;9.30;8.90;;;5.00;99.90;;;;;;4180443;28;20041;-86
2022/04/07 04:04:46;;;;;;;7.70;7.22;;;5.00;99.90;;;;;;4173607;28;20037;-86
2022/04/07 04:06:50;;;;;;;8.18;7.70;;;4.90;99.90;;;;;;4176472;28;20040;-87
2022/04/07 04:08:52;;;;;;;8.05;7.65;;;4.90;99.90;;;;;;4200894;28;20397;-86
2022/04/07 04:10:54;;;;;;;7.97;7.72;;;4.90;99.90;;;;;;4187993;28;20072;-87
2022/04/07 04:12:59;;;;;;;8.15;6.60;;;5.00;99.90;;;;;;4182587;28;20049;-86
2022/04/07 04:15:02;;;;;;;7.55;7.07;;;5.00;99.90;;;;;;4179530;28;20094;-86
2022/04/07 04:17:04;;;;;;;8.07;7.50;;;5.00;99.90;;;;;;4193747;28;20044;-86
2022/04/07 04:19:07;;;;;;;7.13;6.80;;;5.00;99.90;;;;;;4182254;28;20452;-86
2022/04/07 04:21:09;;;;;;;7.95;7.38;;;5.00;99.90;;;;;;4181401;28;20072;-86
2022/04/07 04:23:12;;;;;;;7.03;6.78;;;5.00;99.90;;;;;;4194330;28;20070;-86
2022/04/07 04:25:14;;;;;;;5.88;5.57;;;5.00;99.90;;;;;;4154166;28;20102;-86
2022/04/07 04:27:17;;;;;;;4.97;4.88;;;5.10;99.90;;;;;;4167987;28;20080;-86
2022/04/07 04:29:19;;;;;;;7.13;6.63;;;5.10;99.90;;;;;;4173348;28;20072;-86
2022/04/07 04:31:24;;;;;;;8.13;7.53;;;5.10;99.90;;;;;;4151137;28;20041;-86
2022/04/07 04:33:26;;;;;;;7.00;6.57;;;5.10;99.90;;;;;;4159905;28;20045;-86
2022/04/07 04:35:32;;;;;;;8.00;7.15;;;5.10;99.90;;;;;;4161700;28;20119;-86
2022/04/07 04:37:35;;;;;;;7.65;7.45;;;5.10;99.90;;;;;;4163213;28;20026;-86
2022/04/07 04:39:37;;;;;;;7.53;7.32;;;5.10;99.90;;;;;;4142340;28;20129;-86
2022/04/07 04:41:39;;;;;;;;;;;5.10;99.90;;;;;;4144822;28;20125;-86
2022/04/07 04:43:42;;;;;;;6.75;6.57;;;5.10;99.90;;;;;;4167966;28;19921;-86
2022/04/07 04:45:47;;;;;;;7.00;6.53;;;5.10;99.90;;;;;;4159240;28;20069;-86
2022/04/07 04:47:52;;;;;;;7.05;6.85;;;5.20;99.90;;;;;;4174801;28;20556;-86
2022/04/07 04:49:54;;;;;;;7.03;6.63;;;5.20;99.90;;;;;;4145320;28;20541;-86
2022/04/07 04:51:57;;;;;;;7.82;7.43;;;5.20;99.90;;;;;;4174909;28;20079;-86
2022/04/07 04:53:59;;;;;;;6.97;6.60;;;5.20;99.90;;;;;;4160690;28;20049;-86
2022/04/07 04:56:04;;;;;;;7.70;7.40;;;5.20;99.90;;;;;;4155569;28;20042;-86
2022/04/07 04:58:06;;;;;;;6.80;6.32;;;5.20;99.90;;;;;;4159052;28;20060;-86
2022/04/07 05:00:08;;;;;;;7.47;7.13;;;5.20;99.90;;;;;;4173801;28;20067;-86
2022/04/07 05:02:12;;;;;;;7.28;6.72;;;5.20;99.90;;;;;;4158952;28;20049;-86
2022/04/07 05:04:15;;;;;;;8.68;8.27;;;5.20;99.90;;;;;;4160416;28;20045;-86
2022/04/07 05:06:17;;;;;;;9.02;8.70;;;5.20;99.90;;;;;;4160109;28;20068;-86
2022/04/07 05:08:21;;;;;;;8.25;7.95;;;5.20;99.90;;;;;;4149933;28;20089;-86
2022/04/07 05:10:27;;;;;;;10.85;9.95;;;5.20;99.90;;;;;;4145395;28;20072;-86
2022/04/07 05:12:31;;;;;;;10.07;9.60;;;5.30;99.90;;;;;;4160246;28;20121;-86
2022/04/07 05:14:33;;;;;;;9.25;8.80;;;5.20;99.90;;;;;;4144503;28;20615;-86
2022/04/07 05:16:35;;;;;;;7.28;7.07;;;5.20;99.90;;;;;;4173591;28;20121;-86
2022/04/07 05:18:38;;;;;;;8.68;6.82;;;5.20;99.90;;;;;;4159612;28;20045;-86
2022/04/07 05:20:40;;;;;;;9.40;8.65;;;5.10;99.90;;;;;;4148107;28;20046;-86
2022/04/07 05:22:43;;;;;;;23.45;17.23;;;5.10;99.90;;;;;;4170704;28;20484;-86
2022/04/07 05:24:45;;;;;;;11.18;10.65;;;5.10;99.90;;;;;;4156794;28;20527;-86
2022/04/07 05:26:47;;;;;;;12.02;11.15;;;5.10;99.90;;;;;;4188331;28;20068;-86
2022/04/07 05:28:50;;;;;;;12.10;11.00;;;5.10;99.90;;;;;;4167047;28;20437;-86
2022/04/07 05:30:52;;;;;;;13.70;12.65;;;5.10;99.90;;;;;;4194036;28;20496;-86
2022/04/07 05:32:54;;;;;;;13.02;12.15;;;5.20;99.90;;;;;;4176577;28;20049;-86
2022/04/07 05:34:57;;;;;;;12.57;11.70;;;5.20;99.90;;;;;;4175305;28;20064;-86
2022/04/07 05:37:00;;;;;;;13.05;12.02;;;5.20;99.90;;;;;;4188519;28;20043;-86
2022/04/07 05:39:03;;;;;;;14.43;13.05;;;5.20;99.90;;;;;;4190669;28;20138;-86
2022/04/07 05:41:06;;;;;;;11.68;10.77;;;5.20;99.90;;;;;;4171531;28;20128;-86
2022/04/07 05:43:09;;;;;;;11.02;10.35;;;5.20;99.90;;;;;;4183741;28;20071;-86
2022/04/07 05:45:11;;;;;;;10.25;9.85;;;5.20;99.90;;;;;;4191528;28;20492;-86
2022/04/07 05:47:14;;;;;;;11.00;10.48;;;5.20;99.90;;;;;;4194771;28;20040;-86
2022/04/07 05:49:16;;;;;;;12.27;11.32;;;5.20;99.90;;;;;;4209012;28;20047;-86
2022/04/07 05:51:18;;;;;;;12.70;11.82;;;5.30;99.90;;;;;;4177696;28;20045;-85
2022/04/07 05:53:20;;;;;;;8.95;8.75;;;5.40;99.90;;;;;;4191680;28;20072;-86
2022/04/07 05:55:22;;;;;;;10.85;10.15;;;5.50;99.90;;;;;;4161383;28;20549;-86
2022/04/07 05:57:30;;;;;;;10.80;10.10;;;5.50;99.90;;;;;;4176640;28;20051;-86
2022/04/07 05:59:33;;;;;;;13.88;11.13;;;5.50;99.90;;;;;;4196429;28;20037;-85
2022/04/07 06:01:36;;;;;;;10.75;10.25;;;5.40;99.90;;;;;;4179593;28;20041;-86
2022/04/07 06:03:40;;;;;;;11.05;10.25;;;5.40;99.90;;;;;;4191589;28;20029;-85
2022/04/07 06:05:43;;;;;;;10.57;10.02;;;5.50;99.90;;;;;;4166822;28;20045;-85
2022/04/07 06:07:46;;;;;;;11.48;10.70;;;5.50;99.90;;;;;;4193755;28;20044;-85
2022/04/07 06:10:14;;;;;;;14.82;13.32;;;5.40;99.90;;;;;;4179892;28;20061;-86
2022/04/07 06:12:17;;;;;;;13.10;11.80;;;5.50;99.90;;;;;;4145842;28;20061;-85
2022/04/07 06:14:19;;;;;;;16.05;14.02;;;5.50;99.90;;;;;;4145163;28;20118;-85
2022/04/07 06:16:22;;;;;;;17.02;13.70;;;5.60;99.90;;;;;;4145650;28;20972;-85
2022/04/07 06:18:27;;;;;;;13.05;12.05;;;5.60;99.90;;;;;;4129459;28;20042;-86
2022/04/07 06:20:31;;;;;;;10.88;10.15;;;5.60;99.90;;;;;;4142992;28;20073;-86
2022/04/07 06:22:35;;;;;;;10.13;9.73;;;5.60;99.90;;;;;;4145921;28;20512;-85
2022/04/07 06:24:38;;;;;;;11.75;11.02;;;5.70;99.90;;;;;;4105721;28;20063;-85
2022/04/07 06:26:40;;;;;;;10.02;9.48;;;5.80;99.90;;;;;;4097272;28;20395;-85
2022/04/07 06:28:43;;;;;;;10.82;10.38;;;5.90;99.90;;;;;;4081647;29;20124;-85
2022/04/07 06:30:45;;;;;;;9.70;9.25;;;5.90;99.90;;;;;;4097679;29;20685;-87
2022/04/07 06:32:49;;;;;;;10.38;9.77;;;5.90;99.90;;;;;;4097466;29;20449;-85
2022/04/07 06:34:51;;;;;;;10.38;9.93;;;6.00;99.90;;;;;;4097347;29;20051;-87
2022/04/07 06:36:54;;;;;;;10.02;9.57;;;6.00;99.90;;;;;;4123140;28;20086;-85
2022/04/07 06:38:59;;;;;;;11.30;10.60;;;6.10;99.90;;;;;;4082333;29;20048;-85
2022/04/07 06:41:01;;;;;;;12.00;11.10;;;6.20;99.90;;;;;;4087641;29;20043;-85
2022/04/07 06:43:04;;;;;;;9.90;9.38;;;6.30;99.90;;;;;;4112876;28;20051;-85
2022/04/07 06:45:06;;;;;;;10.07;9.27;;;6.60;99.90;;;;;;4087058;29;20093;-85
2022/04/07 06:47:09;;;;;;;9.95;9.52;;;6.70;99.90;;;;;;4113162;28;20137;-86
2022/04/07 06:49:12;;;;;;;8.98;8.25;;;6.70;99.90;;;;;;4117939;28;20108;-86
2022/04/07 06:51:15;;;;;;;7.43;7.05;;;6.70;99.90;;;;;;4168227;28;20069;-86
2022/04/07 06:53:17;;;;;;;9.43;8.90;;;6.60;99.90;;;;;;4180136;28;20540;-85
2022/04/07 06:55:20;;;;;;;8.25;7.95;;;6.70;99.90;;;;;;4146250;28;20054;-85
2022/04/07 06:57:22;;;;;;;6.63;6.53;;;6.80;99.90;;;;;;4173476;28;20064;-86
2022/04/07 06:59:24;;;;;;;5.88;5.35;;;6.90;99.90;;;;;;4156480;28;20068;-85
2022/04/07 07:01:26;;;;;;;7.93;7.57;;;7.10;99.90;;;;;;4171988;28;20204;-86
2022/04/07 07:03:28;;;;;;;6.32;5.88;;;7.20;99.90;;;;;;4135319;28;20493;-86
2022/04/07 07:05:35;;;;;;;7.25;6.57;;;7.20;99.90;;;;;;4180161;28;20044;-85
2022/04/07 07:07:37;;;;;;;6.07;5.88;;;7.30;99.90;;;;;;4178723;28;20056;-85
2022/04/07 07:09:39;;;;;;;8.38;7.72;;;7.20;99.90;;;;;;4162895;28;20682;-85
2022/04/07 07:11:41;;;;;;;5.80;5.43;;;7.20;99.90;;;;;;4135122;28;20421;-86
2022/04/07 07:13:44;;;;;;;;;;;7.30;99.90;;;;;;4161296;28;20056;-86
2022/04/07 07:15:48;;;;;;;5.72;5.53;;;7.40;99.90;;;;;;4150488;28;20029;-85
2022/04/07 07:17:51;;;;;;;6.22;6.07;;;7.30;99.90;;;;;;4162784;28;20041;-86
2022/04/07 07:19:54;;;;;;;6.00;5.90;;;7.60;99.90;;;;;;4179873;28;20119;-86
2022/04/07 07:22:22;;;;;;;6.53;6.25;;;7.80;99.90;;;;;;4151884;28;20042;-85
2022/04/07 07:24:24;;;;;;;4.93;4.55;;;7.90;99.90;;;;;;4130209;28;20046;-85
2022/04/07 07:26:26;;;;;;;4.80;4.63;;;7.90;99.90;;;;;;4144990;28;21187;-86
2022/04/07 07:28:28;;;;;;;5.70;5.57;;;8.00;99.90;;;;;;4144464;28;20073;-86
2022/04/07 07:30:31;;;;;;;5.47;5.28;;;8.20;99.90;;;;;;4128922;28;20758;-85
2022/04/07 07:32:35;;;;;;;5.97;5.72;;;8.30;99.90;;;;;;4144922;28;20063;-86
2022/04/07 07:34:37;;;;;;;5.13;4.80;;;8.40;99.90;;;;;;4128288;28;20494;-86
2022/04/07 07:36:41;;;;;;;4.78;4.47;;;8.40;99.90;;;;;;4128670;28;20148;-85
2022/04/07 07:38:43;;;;;;;4.53;4.32;;;8.50;99.90;;;;;;4144277;28;20120;-85
2022/04/07 07:40:46;;;;;;;5.50;5.35;;;8.60;99.90;;;;;;4128816;28;20046;-85
2022/04/07 07:42:49;;;;;;;6.03;5.65;;;8.80;99.90;;;;;;4128263;28;20129;-85
2022/04/07 07:44:53;;;;;;;5.70;5.28;;;8.80;99.90;;;;;;4135860;28;20096;-85
2022/04/07 07:47:21;;;;;;;5.18;4.95;;;8.90;99.90;;;;;;4144257;28;20077;-85
2022/04/07 07:49:24;;;;;;;5.20;5.03;;;8.80;99.90;;;;;;4096103;29;20115;-85
2022/04/07 07:51:28;;;;;;;5.05;4.75;;;8.70;99.90;;;;;;4080869;29;20053;-85
2022/04/07 07:53:31;;;;;;;4.45;4.20;;;8.60;99.90;;;;;;4095360;29;20055;-85
2022/04/07 07:55:35;;;;;;;4.68;4.57;;;8.80;99.90;;;;;;4072905;29;20054;-85
2022/04/07 07:57:38;;;;;;;5.45;5.25;;;8.90;99.90;;;;;;4080433;29;20099;-85
2022/04/07 07:59:41;;;;;;;4.63;4.43;;;8.90;99.90;;;;;;4096114;29;20086;-85
2022/04/07 08:01:45;;;;;;;4.18;4.07;;;9.10;99.90;;;;;;4105816;28;20149;-85
2022/04/07 08:03:48;;;;;;;3.67;3.58;;;9.50;99.90;;;;;;4112267;28;20297;-85
2022/04/07 08:05:50;;;;;;;4.50;4.40;;;9.40;99.90;;;;;;4080512;29;20448;-85
2022/04/07 08:07:53;;;;;;;3.80;3.67;;;9.50;99.90;;;;;;4097093;28;20188;-85
2022/04/07 08:09:59;;;;;;;3.80;3.53;;;9.70;99.90;;;;;;4112063;28;20057;-85
2022/04/07 08:12:02;;;;;;;2.97;2.88;;;9.60;99.90;;;;;;4102676;28;20538;-85
2022/04/07 08:14:05;;;;;;;3.92;3.63;;;9.60;99.90;;;;;;4108705;28;20047;-85
2022/04/07 08:16:10;;;;;;;3.08;2.88;;;9.80;99.90;;;;;;4078996;29;20155;-85
2022/04/07 08:18:12;;;;;;;5.15;3.63;;;9.70;99.90;;;;;;4088825;28;20582;-86
2022/04/07 08:20:15;;;;;;;3.42;3.33;;;10.20;99.90;;;;;;4106603;28;20074;-85
2022/04/07 08:22:17;;;;;;;3.17;3.08;;;10.10;99.90;;;;;;4080131;29;20066;-85
2022/04/07 08:24:20;;;;;;;3.55;3.35;;;10.00;99.90;;;;;;4079577;29;20139;-85
2022/04/07 08:26:22;;;;;;;;;;;9.90;99.90;;;;;;4130405;28;20049;-85
2022/04/07 08:28:24;;;;;;;2.88;2.78;;;10.20;99.90;;;;;;4165392;28;19920;-85
2022/04/07 08:30:27;;;;;;;2.88;2.85;;;10.40;99.90;;;;;;4182124;28;20048;-85
2022/04/07 08:32:32;;;;;;;6.50;3.40;;;10.90;99.90;;;;;;4177764;28;20124;-85
2022/04/07 08:34:35;;;;;;;2.70;2.50;;;10.90;99.90;;;;;;4176640;28;20064;-85
2022/04/07 08:36:39;;;;;;;2.20;2.13;;;10.70;99.90;;;;;;4171231;28;20071;-85
2022/04/07 08:38:42;;;;;;;2.03;1.90;;;10.40;99.90;;;;;;4172674;28;20078;-85
2022/04/07 08:40:48;;;;;;;2.90;2.80;;;10.70;99.90;;;;;;4159706;28;20087;-85
2022/04/07 08:42:50;;;;;;;2.97;2.88;;;10.40;99.90;;;;;;4153757;28;20524;-85
2022/04/07 08:44:53;;;;;;;3.15;2.92;;;10.40;99.90;;;;;;4178963;28;20084;-85
2022/04/07 08:46:56;;;;;;;3.50;3.03;;;10.80;99.90;;;;;;4166830;28;20036;-85
2022/04/07 08:49:04;;;;;;;2.17;2.17;;;11.30;99.90;;;;;;4162109;28;20053;-85
2022/04/07 08:51:10;;;;;;;2.05;2.00;;;11.80;99.90;;;;;;4187160;28;20048;-85
2022/04/07 08:53:13;;;;;;;2.70;2.60;;;11.90;99.90;;;;;;4160583;28;20091;-85
2022/04/07 08:55:15;;;;;;;2.75;1.95;;;12.10;99.90;;;;;;4177086;28;20053;-85
2022/04/07 08:57:18;;;;;;;2.28;2.13;;;11.40;99.90;;;;;;4180009;28;20036;-85
2022/04/07 08:59:21;;;;;;;2.28;2.17;;;11.00;99.90;;;;;;4156983;28;20061;-85
2022/04/07 09:01:24;;;;;;;3.40;1.90;;;10.70;99.90;;;;;;4160874;28;20489;-85
2022/04/07 09:03:26;;;;;;;2.22;2.03;;;11.00;99.90;;;;;;4162752;28;20604;-85
2022/04/07 09:05:30;;;;;;;3.75;2.63;;;11.10;99.90;;;;;;4150620;28;20044;-85
2022/04/07 09:07:33;;;;;;;2.00;1.90;;;11.60;99.90;;;;;;4195071;28;20055;-85
2022/04/07 09:09:36;;;;;;;2.45;2.40;;;11.80;99.90;;;;;;4165487;28;20041;-85
2022/04/07 09:11:38;;;;;;;;;;;11.40;99.90;;;;;;4177587;28;20033;-85
2022/04/07 09:13:42;;;;;;;2.00;1.95;;;11.30;99.90;;;;;;4176962;28;19921;-85
2022/04/07 09:15:45;;;;;;;4.53;2.47;;;11.40;99.90;;;;;;4163340;28;20573;-85
2022/04/07 09:17:59;;;;;;;4.43;3.22;;;11.60;99.90;;;;;;4154373;28;20068;-85
2022/04/07 09:20:08;;;;;;;2.42;2.30;;;11.80;99.90;;;;;;4161849;28;20038;-85
2022/04/07 09:22:11;;;;;;;3.15;1.98;;;11.90;99.90;;;;;;4180709;28;20029;-85
2022/04/07 09:24:15;;;;;;;2.35;2.15;;;11.90;99.90;;;;;;4164772;28;20041;-85
2022/04/07 09:26:17;;;;;;;4.53;2.65;;;12.00;99.90;;;;;;4187503;28;20041;-85
2022/04/07 09:28:25;;;;;;;2.45;2.22;;;12.20;99.90;;;;;;4178290;28;20056;-86
2022/04/07 09:30:37;;;;;;;2.58;2.38;;;12.30;99.90;;;;;;4180644;28;20128;-85
2022/04/07 09:32:44;;;;;;;2.58;2.47;;;12.00;99.90;;;;;;4191856;28;20139;-85
2022/04/07 09:34:52;;;;;;;2.75;2.42;;;11.80;99.90;;;;;;4180166;28;20508;-85
2022/04/07 09:37:04;;;;;;;4.45;2.60;;;11.60;99.90;;;;;;4180151;28;20477;-85
2022/04/07 09:39:07;;;;;;;2.85;2.72;;;11.70;99.90;;;;;;4193234;28;20048;-85
2022/04/07 09:41:12;;;;;;;3.42;3.33;;;11.90;99.90;;;;;;4179269;28;20094;-85
2022/04/07 09:43:14;;;;;;;3.10;2.40;;;12.20;99.90;;;;;;4175637;28;20045;-85
2022/04/07 09:45:23;;;;;;;1.95;1.85;;;12.30;99.90;;;;;;4185580;28;20713;-85
2022/04/07 09:47:41;;;;;;;5.00;3.00;;;12.50;99.90;;;;;;4170937;28;20685;-85
2022/04/07 09:49:45;;;;;;;2.45;2.35;;;12.60;99.90;;;;;;4194134;28;20033;-85
2022/04/07 09:51:47;;;;;;;5.57;3.33;;;12.60;99.90;;;;;;4194188;28;20076;-85
2022/04/07 09:53:51;;;;;;;2.63;2.53;;;12.80;99.90;;;;;;4181896;28;20055;-85
2022/04/07 09:55:57;;;;;;;2.47;1.77;;;12.80;99.90;;;;;;4189171;28;20042;-85
2022/04/07 09:58:01;;;;;;;2.63;2.53;;;12.70;99.90;;;;;;4177870;28;20094;-85
2022/04/07 10:00:05;;;;;;;2.55;2.45;;;12.40;99.90;;;;;;4179024;28;20076;-85
2022/04/07 10:02:08;;;;;;;5.05;4.63;;;12.20;99.90;;;;;;4189909;28;20055;-85
2022/04/07 10:04:11;;;;;;;4.15;3.75;;;12.00;99.90;;;;;;4175837;28;20041;-86
2022/04/07 10:06:16;;;;;;;3.05;2.92;;;12.00;99.90;;;;;;4193287;28;20041;-85
2022/04/07 10:08:19;;;;;;;3.88;3.78;;;12.00;99.90;;;;;;4201614;28;20393;-86
2022/04/07 10:10:22;;;;;;;2.63;2.47;;;11.80;99.90;;;;;;4174185;28;20047;-85
2022/04/07 10:12:25;;;;;;;2.78;2.67;;;11.70;99.90;;;;;;4176038;28;20091;-86
2022/04/07 10:14:30;;;;;;;3.15;2.95;;;11.70;99.90;;;;;;4176243;28;20044;-85
2022/04/07 10:16:33;;;;;;;3.10;2.85;;;11.70;99.90;;;;;;4190191;28;20043;-86
2022/04/07 10:18:43;;;;;;;5.93;5.63;;;11.80;99.90;;;;;;4192237;28;20033;-85
2022/04/07 10:20:49;;;;;;;4.55;4.20;;;11.50;99.90;;;;;;4160028;28;20131;-86
2022/04/07 10:23:06;;;;;;;4.18;3.85;;;11.40;99.90;;;;;;4187034;28;20122;-86
2022/04/07 10:25:09;;;;;;;5.28;4.97;;;11.30;99.90;;;;;;4185210;28;20906;-85
2022/04/07 10:27:14;;;;;;;6.00;4.53;;;11.30;99.90;;;;;;4180869;28;20483;-86
2022/04/07 10:29:22;;;;;;;4.45;4.35;;;11.20;99.90;;;;;;4178572;28;20094;-86
2022/04/07 10:31:25;;;;;;;5.97;4.03;;;11.20;99.90;;;;;;4193054;28;20040;-86
2022/04/07 10:33:32;;;;;;;3.33;3.22;;;11.20;99.90;;;;;;4190211;28;20048;-86
2022/04/07 10:35:39;;;;;;;4.03;3.83;;;11.10;99.90;;;;;;4177236;28;20041;-86
2022/04/07 10:37:46;;;;;;;4.30;3.78;;;11.10;99.90;;;;;;4186416;28;20032;-86
2022/04/07 10:39:50;;;;;;;4.60;4.50;;;11.20;99.90;;;;;;4166162;28;20591;-85
2022/04/07 10:41:53;;;;;;;3.92;3.72;;;11.10;99.90;;;;;;4170427;28;20037;-85
2022/04/07 10:44:10;;;;;;;6.03;5.18;;;11.20;99.90;;;;;;4179981;28;20149;-85
2022/04/07 10:46:18;;;;;;;4.85;4.55;;;11.10;99.90;;;;;;4194078;28;20456;-85
2022/04/07 10:48:29;;;;;;;4.13;3.92;;;10.90;99.90;;;;;;4183606;28;20041;-86
2022/04/07 10:50:31;;;;;;;4.22;3.85;;;10.80;99.90;;;;;;4174210;28;20087;-85